createdAt,value
2022-12-12T00:01:32.062Z,20.10
2022-12-12T00:04:19.114Z,20.70
2022-12-12T00:07:06.062Z,24.60
2022-12-12T00:09:52.796Z,17.90
2022-12-12T00:12:39.582Z,19.80
2022-12-12T00:15:27.420Z,16.00
2022-12-12T00:18:14.328Z,19.20
2022-12-12T00:21:01.211Z,21.50
2022-12-12T00:23:48.035Z,21.90
2022-12-12T00:26:34.604Z,14.30
2022-12-12T00:29:21.464Z,24.80
2022-12-12T00:32:08.057Z,19.20
2022-12-12T00:34:54.562Z,14.80
2022-12-12T00:37:41.363Z,15.20
2022-12-12T00:40:28.020Z,19.80
2022-12-12T00:43:14.753Z,13.20
2022-12-12T00:46:01.655Z,15.10
2022-12-12T00:48:48.323Z,14.40
2022-12-12T00:51:35.156Z,20.30
2022-12-12T00:54:21.608Z,20.20
2022-12-12T00:57:08.241Z,19.50
2022-12-12T00:59:54.889Z,19.20
2022-12-12T01:02:41.580Z,21.30
2022-12-12T01:05:28.110Z,20.50
2022-12-12T01:08:15.026Z,15.30
2022-12-12T01:11:01.810Z,16.80
2022-12-12T01:13:48.980Z,18.10
2022-12-12T01:16:35.888Z,14.90
2022-12-12T01:19:22.802Z,19.00
2022-12-12T01:22:10.156Z,24.40
2022-12-12T01:24:57.271Z,22.50
2022-12-12T01:27:43.866Z,23.50
2022-12-12T01:30:30.443Z,15.10
2022-12-12T01:33:16.520Z,18.30
2022-12-12T01:36:02.851Z,19.70
2022-12-12T01:38:50.698Z,20.60
2022-12-12T01:41:36.958Z,11.10
2022-12-12T01:44:45.792Z,17.10
2022-12-12T01:47:32.440Z,18.80
2022-12-12T01:50:18.959Z,17.90
2022-12-12T01:53:05.195Z,19.80
2022-12-12T01:55:51.652Z,18.10
2022-12-12T01:58:40.758Z,13.80
2022-12-12T02:01:26.858Z,15.30
2022-12-12T02:04:13.181Z,18.10
2022-12-12T02:06:59.825Z,15.90
2022-12-12T02:09:46.524Z,13.00
2022-12-12T02:12:33.011Z,12.70
2022-12-12T02:15:19.415Z,15.60
2022-12-12T02:18:12.512Z,17.30
2022-12-12T02:21:04.938Z,16.80
2022-12-12T02:23:58.208Z,14.10
2022-12-12T02:27:05.883Z,16.50
2022-12-12T02:30:14.715Z,15.00
2022-12-12T02:33:21.703Z,12.10
2022-12-12T02:36:28.919Z,14.30
2022-12-12T02:39:38.320Z,13.10
2022-12-12T02:42:36.840Z,10.30
2022-12-12T02:45:50.691Z,16.80
2022-12-12T02:48:50.037Z,16.70
2022-12-12T02:51:36.500Z,16.30
2022-12-12T02:54:22.841Z,16.70
2022-12-12T02:57:16.771Z,21.20
2022-12-12T03:00:09.937Z,7.50
2022-12-12T03:03:18.738Z,17.60
2022-12-12T03:06:52.256Z,12.20
2022-12-12T03:09:49.385Z,16.40
2022-12-12T03:12:43.347Z,14.00
2022-12-12T03:16:03.492Z,20.30
2022-12-12T03:19:13.744Z,18.10
2022-12-12T03:22:07.847Z,18.40
2022-12-12T03:25:15.774Z,17.30
2022-12-12T03:28:05.625Z,12.90
2022-12-12T03:30:55.280Z,13.10
2022-12-12T03:33:50.201Z,18.10
2022-12-12T03:37:07.249Z,16.10
2022-12-12T03:39:58.515Z,17.30
2022-12-12T03:42:48.600Z,17.90
2022-12-12T03:45:39.522Z,18.90
2022-12-12T03:48:29.789Z,13.70
2022-12-12T03:51:18.894Z,15.80
2022-12-12T03:54:07.899Z,17.70
2022-12-12T03:57:10.128Z,16.90
2022-12-12T04:00:10.983Z,15.30
2022-12-12T04:02:59.085Z,19.50
2022-12-12T04:06:21.456Z,19.40
2022-12-12T04:09:31.708Z,18.80
2022-12-12T04:13:05.155Z,16.60
2022-12-12T04:16:00.761Z,8.40
2022-12-12T04:18:57.354Z,16.10
2022-12-12T04:22:16.707Z,13.60
2022-12-12T04:25:08.181Z,16.30
2022-12-12T04:27:55.091Z,15.60
2022-12-12T04:30:41.175Z,17.70
2022-12-12T04:33:29.186Z,15.40
2022-12-12T04:36:15.730Z,15.40
2022-12-12T04:39:02.292Z,17.70
2022-12-12T04:41:49.015Z,18.60
2022-12-12T04:44:35.371Z,16.50
2022-12-12T04:47:21.729Z,16.80
2022-12-12T04:50:08.537Z,17.10
2022-12-12T04:52:55.717Z,15.60
2022-12-12T04:55:47.626Z,12.90
2022-12-12T04:58:33.728Z,8.40
2022-12-12T05:01:49.606Z,17.60
2022-12-12T05:04:47.039Z,16.80
2022-12-12T05:07:40.373Z,16.90
2022-12-12T05:10:26.926Z,17.50
2022-12-12T05:13:19.217Z,13.50
2022-12-12T05:16:37.767Z,16.30
2022-12-12T05:19:24.143Z,15.40
2022-12-12T05:22:10.125Z,9.90
2022-12-12T05:24:56.481Z,15.10
2022-12-12T05:27:42.760Z,12.50
2022-12-12T05:30:29.237Z,14.00
2022-12-12T05:33:15.843Z,12.80
2022-12-12T05:36:02.156Z,14.80
2022-12-12T05:38:48.506Z,16.10
2022-12-12T05:41:35.100Z,14.60
2022-12-12T05:44:21.268Z,15.80
2022-12-12T05:47:07.605Z,16.60
2022-12-12T05:49:54.294Z,12.30
2022-12-12T05:52:40.426Z,11.90
2022-12-12T05:55:26.995Z,17.90
2022-12-12T05:58:13.568Z,13.10
2022-12-12T06:01:03.172Z,12.60
2022-12-12T06:03:49.871Z,15.10
2022-12-12T06:06:36.629Z,11.50
2022-12-12T06:09:23.383Z,10.60
2022-12-12T06:12:09.669Z,12.80
2022-12-12T06:14:56.063Z,14.50
2022-12-12T06:17:42.511Z,9.00
2022-12-12T06:20:30.583Z,18.90
2022-12-12T06:23:16.816Z,16.60
2022-12-12T06:26:03.024Z,19.10
2022-12-12T06:28:49.108Z,16.90
2022-12-12T06:31:35.732Z,11.20
2022-12-12T06:34:22.403Z,14.70
2022-12-12T06:37:11.763Z,10.90
2022-12-12T06:40:03.926Z,6.10
2022-12-12T06:42:50.604Z,11.80
2022-12-12T06:45:36.996Z,5.10
2022-12-12T06:48:23.305Z,12.40
2022-12-12T06:51:10.608Z,9.40
2022-12-12T06:53:57.494Z,14.30
2022-12-12T06:56:48.258Z,12.00
2022-12-12T06:59:35.057Z,11.30
2022-12-12T07:02:29.049Z,9.60
2022-12-12T07:05:16.481Z,11.90
2022-12-12T07:08:03.016Z,9.30
2022-12-12T07:10:49.274Z,12.00
2022-12-12T07:13:35.568Z,13.00
2022-12-12T07:16:22.051Z,6.60
2022-12-12T07:19:09.198Z,10.50
2022-12-12T07:21:55.598Z,8.00
2022-12-12T07:24:42.183Z,13.00
2022-12-12T07:27:28.399Z,13.70
2022-12-12T07:30:14.724Z,9.10
2022-12-12T07:33:01.381Z,14.30
2022-12-12T07:35:47.691Z,13.70
2022-12-12T07:38:34.271Z,10.80
2022-12-12T07:41:20.965Z,12.20
2022-12-12T07:44:07.287Z,26.20
2022-12-12T07:46:53.952Z,10.10
2022-12-12T07:49:40.348Z,9.50
2022-12-12T07:52:26.766Z,15.30
2022-12-12T07:55:13.432Z,13.40
2022-12-12T07:57:59.969Z,14.80
2022-12-12T08:00:46.395Z,12.70
2022-12-12T08:03:33.022Z,14.90
2022-12-12T08:06:20.609Z,16.00
2022-12-12T08:09:06.998Z,15.50
2022-12-12T08:11:58.346Z,9.50
2022-12-12T08:14:45.023Z,10.90
2022-12-12T08:17:31.989Z,14.10
2022-12-12T08:20:18.171Z,20.90
2022-12-12T08:23:04.988Z,12.80
2022-12-12T08:25:51.366Z,14.40
2022-12-12T08:28:37.988Z,10.80
2022-12-12T08:31:25.113Z,12.90
2022-12-12T08:34:11.476Z,11.30
2022-12-12T08:36:57.486Z,14.30
2022-12-12T08:39:44.025Z,15.90
2022-12-12T08:42:30.487Z,15.10
2022-12-12T08:45:17.077Z,14.80
2022-12-12T08:48:03.854Z,10.60
2022-12-12T08:50:51.742Z,9.10
2022-12-12T08:53:38.353Z,7.70
2022-12-12T08:56:24.850Z,15.50
2022-12-12T08:59:11.624Z,17.20
2022-12-12T09:01:58.029Z,11.80
2022-12-12T09:04:44.263Z,18.00
2022-12-12T09:07:30.778Z,15.20
2022-12-12T09:10:17.202Z,12.20
2022-12-12T09:13:03.909Z,8.20
2022-12-12T09:15:51.096Z,8.40
2022-12-12T09:18:42.015Z,9.40
2022-12-12T09:21:32.645Z,7.60
2022-12-12T09:24:19.665Z,7.80
2022-12-12T09:27:06.309Z,15.10
2022-12-12T09:29:52.813Z,9.90
2022-12-12T09:32:39.000Z,8.70
2022-12-12T09:35:25.588Z,10.70
2022-12-12T09:38:14.518Z,8.20
2022-12-12T09:41:18.796Z,4.90
2022-12-12T09:44:08.021Z,8.30
2022-12-12T09:47:00.431Z,9.60
2022-12-12T09:49:48.487Z,10.30
2022-12-12T09:52:35.880Z,2.90
2022-12-12T09:55:27.120Z,8.50
2022-12-12T09:58:19.681Z,4.90
2022-12-12T10:01:22.997Z,3.10
2022-12-12T10:04:24.687Z,7.20
2022-12-12T10:07:18.607Z,7.80
2022-12-12T10:10:22.984Z,9.80
2022-12-12T10:13:16.431Z,6.60
2022-12-12T10:16:05.225Z,10.30
2022-12-12T10:18:52.438Z,8.30
2022-12-12T10:21:40.935Z,10.60
2022-12-12T10:24:33.188Z,9.40
2022-12-12T10:27:19.623Z,7.50
2022-12-12T10:30:17.126Z,9.40
2022-12-12T10:33:12.576Z,10.20
2022-12-12T10:36:07.432Z,6.60
2022-12-12T10:39:21.355Z,10.60
2022-12-12T10:42:10.759Z,8.00
2022-12-12T10:45:23.046Z,9.10
2022-12-12T10:48:09.409Z,10.00
2022-12-12T10:51:02.087Z,10.90
2022-12-12T10:53:48.352Z,6.20
2022-12-12T10:56:34.691Z,8.20
2022-12-12T10:59:21.936Z,5.50
2022-12-12T11:02:28.303Z,9.70
2022-12-12T11:05:21.487Z,10.40
2022-12-12T11:08:28.290Z,12.20
2022-12-12T11:11:19.670Z,8.10
2022-12-12T11:16:56.469Z,6.20
2022-12-12T11:19:43.116Z,7.30
2022-12-12T11:22:31.711Z,7.50
2022-12-12T11:25:36.153Z,10.90
2022-12-12T11:28:23.480Z,9.90
2022-12-12T11:31:12.655Z,11.00
2022-12-12T11:34:00.949Z,8.20
2022-12-12T11:36:47.495Z,7.30
2022-12-12T11:39:41.034Z,6.10
2022-12-12T11:42:31.747Z,9.60
2022-12-12T11:48:33.576Z,5.20
2022-12-12T11:51:43.264Z,7.00
2022-12-12T11:54:31.100Z,7.20
2022-12-12T11:57:26.008Z,9.30
2022-12-12T12:00:19.940Z,4.60
2022-12-12T12:03:23.008Z,4.80
2022-12-12T12:06:50.418Z,6.80
2022-12-12T12:09:50.762Z,5.90
2022-12-12T12:12:50.675Z,5.30
2022-12-12T12:15:50.706Z,6.50
2022-12-12T12:18:46.255Z,5.40
2022-12-12T12:21:51.051Z,7.20
2022-12-12T12:24:59.231Z,6.60
2022-12-12T12:28:13.505Z,7.50
2022-12-12T12:31:08.837Z,5.30
2022-12-12T12:34:01.819Z,6.00
2022-12-12T12:37:40.007Z,6.50
2022-12-12T12:40:51.916Z,5.20
2022-12-12T12:43:50.584Z,6.40
2022-12-12T12:46:43.055Z,6.20
2022-12-12T12:49:32.738Z,7.10
2022-12-12T12:52:26.189Z,5.00
2022-12-12T12:55:17.594Z,4.80
2022-12-12T12:58:04.735Z,3.80
2022-12-12T13:00:57.677Z,4.40
2022-12-12T13:04:08.064Z,5.80
2022-12-12T13:06:57.328Z,4.50
2022-12-12T13:10:20.560Z,2.70
2022-12-12T13:13:10.229Z,4.60
2022-12-12T13:16:07.634Z,5.70
2022-12-12T13:19:23.901Z,3.60
2022-12-12T13:22:14.387Z,4.30
2022-12-12T13:25:15.775Z,4.20
2022-12-12T13:28:04.906Z,2.80
2022-12-12T13:31:06.807Z,3.00
2022-12-12T13:34:01.779Z,5.00
2022-12-12T13:36:49.352Z,3.60
2022-12-12T13:39:37.370Z,4.60
2022-12-12T13:42:23.555Z,2.20
2022-12-12T13:45:32.447Z,3.50
2022-12-12T13:48:28.115Z,3.30
2022-12-12T13:51:33.356Z,4.90
2022-12-12T13:54:19.845Z,3.40
2022-12-12T13:57:11.154Z,3.10
2022-12-12T13:59:57.794Z,3.90
2022-12-12T14:02:45.213Z,2.70
2022-12-12T14:05:34.103Z,4.40
2022-12-12T14:08:28.429Z,2.80
2022-12-12T14:11:26.412Z,6.60
2022-12-12T14:14:20.724Z,3.30
2022-12-12T14:17:19.235Z,4.20
2022-12-12T14:20:06.314Z,3.40
2022-12-12T14:22:59.387Z,5.70
2022-12-12T14:25:45.633Z,3.10
2022-12-12T14:28:33.315Z,6.80
2022-12-12T14:31:19.751Z,2.60
2022-12-12T14:34:32.595Z,3.80
2022-12-12T14:37:51.920Z,4.50
2022-12-12T14:43:30.190Z,6.10
2022-12-12T14:46:17.339Z,4.20
2022-12-12T14:49:04.443Z,4.70
2022-12-12T14:51:51.491Z,3.60
2022-12-12T14:54:38.172Z,6.70
2022-12-12T14:57:24.333Z,5.30
2022-12-12T15:00:19.995Z,5.70
2022-12-12T15:03:06.529Z,9.50
2022-12-12T15:06:23.948Z,6.70
2022-12-12T15:09:11.017Z,8.80
2022-12-12T15:12:21.419Z,6.30
2022-12-12T15:15:24.899Z,6.30
2022-12-12T15:18:11.259Z,8.50
2022-12-12T15:20:57.939Z,2.70
2022-12-12T15:23:44.247Z,5.90
2022-12-12T15:26:31.228Z,5.80
2022-12-12T15:29:19.163Z,6.50
2022-12-12T15:32:07.818Z,5.50
2022-12-12T15:35:07.711Z,6.00
2022-12-12T15:37:57.372Z,4.00
2022-12-12T15:40:45.551Z,6.20
2022-12-12T15:43:32.339Z,4.40
2022-12-12T15:46:18.906Z,3.10
2022-12-12T15:49:05.698Z,4.30
2022-12-12T15:51:51.991Z,4.20
2022-12-12T15:54:38.867Z,5.30
2022-12-12T15:57:26.890Z,5.20
2022-12-12T16:00:31.796Z,7.80
2022-12-12T16:03:22.437Z,3.10
2022-12-12T16:06:16.564Z,5.20
2022-12-12T16:09:11.927Z,4.00
2022-12-12T16:11:58.901Z,5.70
2022-12-12T16:14:44.969Z,2.40
2022-12-12T16:17:31.292Z,7.40
2022-12-12T16:20:17.524Z,5.60
2022-12-12T16:23:17.435Z,6.40
2022-12-12T16:26:04.167Z,5.20
2022-12-12T16:28:50.500Z,5.30
2022-12-12T16:31:36.810Z,4.10
2022-12-12T16:34:23.260Z,4.70
2022-12-12T16:37:17.624Z,5.50
2022-12-12T16:40:04.524Z,3.20
2022-12-12T16:42:59.578Z,3.50
2022-12-12T16:45:46.308Z,3.20
2022-12-12T16:48:34.403Z,3.40
2022-12-12T16:51:26.216Z,2.80
2022-12-12T16:54:16.952Z,1.90
2022-12-12T16:57:03.477Z,5.00
2022-12-12T16:59:49.786Z,3.00
2022-12-12T17:02:36.751Z,2.30
2022-12-12T17:05:25.282Z,4.70
2022-12-12T17:08:11.701Z,6.50
2022-12-12T17:11:10.233Z,2.80
2022-12-12T17:13:57.600Z,3.70
2022-12-12T17:16:43.822Z,4.60
2022-12-12T17:19:30.411Z,4.20
2022-12-12T17:22:17.059Z,6.80
2022-12-12T17:25:03.711Z,6.20
2022-12-12T17:27:50.859Z,6.20
2022-12-12T17:30:37.626Z,4.60
2022-12-12T17:33:24.169Z,1.90
2022-12-12T17:36:10.501Z,7.40
2022-12-12T17:38:57.191Z,5.70
2022-12-12T17:41:43.566Z,2.00
2022-12-12T17:44:30.117Z,3.80
2022-12-12T17:47:17.108Z,2.40
2022-12-12T17:50:04.161Z,4.00
2022-12-12T17:52:51.076Z,4.50
2022-12-12T17:55:52.392Z,5.60
2022-12-12T17:58:43.632Z,4.70
2022-12-12T18:01:33.574Z,3.20
2022-12-12T18:04:28.129Z,3.30
2022-12-12T18:07:14.828Z,5.00
2022-12-12T18:10:01.219Z,4.60
2022-12-12T18:12:51.607Z,6.90
2022-12-12T18:15:38.350Z,6.40
2022-12-12T18:18:25.352Z,4.40
2022-12-12T18:21:35.768Z,4.40
2022-12-12T18:24:24.859Z,3.10
2022-12-12T18:27:11.230Z,3.00
2022-12-12T18:29:57.396Z,2.70
2022-12-12T18:32:43.973Z,4.90
2022-12-12T18:35:30.589Z,3.80
2022-12-12T18:38:17.534Z,6.30
2022-12-12T18:41:04.303Z,4.60
2022-12-12T18:43:50.783Z,2.90
2022-12-12T18:46:42.295Z,3.80
2022-12-12T18:49:29.600Z,3.90
2022-12-12T18:52:15.807Z,4.00
2022-12-12T18:55:02.133Z,6.00
2022-12-12T18:57:48.243Z,6.00
2022-12-12T19:00:34.844Z,11.60
2022-12-12T19:03:21.410Z,6.60
2022-12-12T19:06:09.640Z,7.70
2022-12-12T19:08:56.411Z,4.30
2022-12-12T19:11:43.579Z,2.20
2022-12-12T19:14:45.958Z,5.70
2022-12-12T19:17:37.005Z,5.50
2022-12-12T19:20:24.123Z,9.80
2022-12-12T19:23:10.951Z,4.80
2022-12-12T19:26:04.324Z,5.90
2022-12-12T19:28:51.614Z,9.30
2022-12-12T19:31:38.299Z,4.20
2022-12-12T19:34:24.979Z,2.70
2022-12-12T19:37:11.932Z,4.90
2022-12-12T19:39:58.213Z,3.50
2022-12-12T19:42:44.661Z,3.10
2022-12-12T19:45:31.220Z,5.20
2022-12-12T19:48:17.833Z,3.90
2022-12-12T19:51:17.655Z,4.90
2022-12-12T19:54:18.857Z,6.80
2022-12-12T19:57:05.186Z,5.90
2022-12-12T19:59:52.297Z,5.70
2022-12-12T20:02:38.552Z,5.20
2022-12-12T20:05:25.012Z,6.60
2022-12-12T20:08:11.730Z,4.80
2022-12-12T20:11:08.424Z,3.40
2022-12-12T20:13:56.248Z,3.80
2022-12-12T20:16:42.875Z,4.90
2022-12-12T20:19:29.161Z,5.90
2022-12-12T20:22:15.963Z,6.90
2022-12-12T20:25:02.503Z,4.80
2022-12-12T20:27:48.761Z,4.30
2022-12-12T20:30:35.353Z,10.50
2022-12-12T20:33:21.891Z,8.90
2022-12-12T20:36:28.193Z,9.00
2022-12-12T20:39:22.310Z,5.50
2022-12-12T20:42:11.004Z,5.50
2022-12-12T20:45:18.696Z,8.50
2022-12-12T20:48:07.774Z,7.20
2022-12-12T20:50:58.138Z,9.50
2022-12-12T20:53:47.185Z,5.60
2022-12-12T20:56:34.641Z,3.00
2022-12-12T20:59:21.132Z,10.40
2022-12-12T21:02:07.570Z,4.30
2022-12-12T21:04:54.136Z,6.50
2022-12-12T21:07:40.737Z,5.10
2022-12-12T21:10:27.243Z,5.50
2022-12-12T21:13:13.455Z,5.60
2022-12-12T21:15:59.747Z,3.40
2022-12-12T21:18:47.075Z,7.80
2022-12-12T21:21:33.400Z,8.40
2022-12-12T21:24:19.847Z,8.10
2022-12-12T21:27:06.555Z,6.00
2022-12-12T21:29:52.916Z,4.00
2022-12-12T21:32:39.386Z,3.50
2022-12-12T21:35:25.684Z,6.80
2022-12-12T21:38:12.074Z,4.70
2022-12-12T21:40:58.520Z,6.40
2022-12-12T21:43:45.289Z,1.80
2022-12-12T21:46:31.484Z,7.10
2022-12-12T21:49:27.834Z,5.60
2022-12-12T21:52:15.026Z,8.70
2022-12-12T21:55:01.683Z,5.90
2022-12-12T21:57:47.896Z,9.40
2022-12-12T22:00:39.937Z,6.80
2022-12-12T22:03:26.218Z,6.70
2022-12-12T22:06:17.040Z,3.10
2022-12-12T22:12:03.546Z,3.00
2022-12-12T22:14:50.858Z,6.00
2022-12-12T22:17:37.309Z,14.20
2022-12-12T22:20:23.649Z,4.60
2022-12-12T22:23:10.009Z,6.10
